createdAt,value
2019-03-06T00:00:46.110Z,3.94
2019-03-06T00:03:19.571Z,3.86
2019-03-06T00:05:51.528Z,3.65
2019-03-06T00:08:23.445Z,3.74
2019-03-06T00:10:55.313Z,3.80
2019-03-06T00:13:27.025Z,3.88
2019-03-06T00:16:00.040Z,3.92
2019-03-06T00:18:31.820Z,3.90
2019-03-06T00:21:03.535Z,3.86
2019-03-06T00:23:35.352Z,3.96
2019-03-06T00:26:07.216Z,3.75
2019-03-06T00:28:39.181Z,3.75
2019-03-06T00:31:11.775Z,3.71
2019-03-06T00:33:43.503Z,3.70
2019-03-06T00:36:19.693Z,3.67
2019-03-06T00:38:51.427Z,3.66
2019-03-06T00:41:31.251Z,3.65
2019-03-06T00:44:03.222Z,3.69
2019-03-06T00:46:34.950Z,3.71
2019-03-06T00:49:06.835Z,3.77
2019-03-06T00:51:38.631Z,3.79
2019-03-06T01:07:09.671Z,3.73
2019-03-06T01:09:41.525Z,3.70
2019-03-06T01:12:15.230Z,3.69
2019-03-06T01:14:47.147Z,3.70
2019-03-06T01:17:18.967Z,3.72
2019-03-06T01:19:50.701Z,3.74
2019-03-06T01:22:22.615Z,3.72
2019-03-06T01:24:54.499Z,3.71
2019-03-06T01:27:26.312Z,3.71
2019-03-06T01:29:58.127Z,3.69
2019-03-06T01:32:30.119Z,3.69
2019-03-06T01:35:20.841Z,3.69
2019-03-06T01:38:17.610Z,3.69
2019-03-06T01:41:06.156Z,3.68
2019-03-06T01:43:43.490Z,3.72
2019-03-06T01:46:15.495Z,3.71
2019-03-06T01:48:47.370Z,3.69
2019-03-06T01:51:19.553Z,3.69
2019-03-06T01:53:51.703Z,3.73
2019-03-06T01:56:23.830Z,3.62
2019-03-06T01:58:55.573Z,3.56
2019-03-06T02:01:27.378Z,3.50
2019-03-06T02:03:59.452Z,3.49
2019-03-06T02:06:32.539Z,3.47
2019-03-06T02:09:04.634Z,3.46
2019-03-06T02:11:38.191Z,3.45
2019-03-06T02:14:10.005Z,3.48
2019-03-06T02:16:41.899Z,3.48
2019-03-06T02:19:13.793Z,3.43
2019-03-06T02:21:45.684Z,3.43
2019-03-06T02:24:17.845Z,3.48
2019-03-06T02:26:49.834Z,3.51
2019-03-06T02:29:21.581Z,3.47
2019-03-06T02:31:53.456Z,3.44
2019-03-06T02:34:25.200Z,3.41
2019-03-06T02:36:57.015Z,3.38
2019-03-06T02:39:28.834Z,3.39
2019-03-06T02:42:00.556Z,3.36
2019-03-06T02:44:32.392Z,3.33
2019-03-06T02:47:04.374Z,3.36
2019-03-06T02:49:36.122Z,3.38
2019-03-06T02:52:07.999Z,3.34
2019-03-06T02:54:39.805Z,3.26
2019-03-06T02:57:11.630Z,3.25
2019-03-06T03:00:00.796Z,3.20
2019-03-06T03:02:42.515Z,3.14
2019-03-06T03:05:31.474Z,3.07
2019-03-06T03:08:03.294Z,3.05
2019-03-06T03:10:35.243Z,3.24
2019-03-06T03:13:07.177Z,3.28
2019-03-06T03:15:39.060Z,3.11
2019-03-06T03:18:11.248Z,2.97
2019-03-06T03:20:43.225Z,2.91
2019-03-06T03:23:15.242Z,2.80
2019-03-06T03:25:47.223Z,2.76
2019-03-06T03:28:19.893Z,2.73
2019-03-06T03:30:51.766Z,2.67
2019-03-06T03:33:23.586Z,2.73
2019-03-06T03:35:55.973Z,2.75
2019-03-06T03:38:27.795Z,2.99
2019-03-06T03:40:59.615Z,2.88
2019-03-06T03:43:31.458Z,2.73
2019-03-06T03:46:03.379Z,2.58
2019-03-06T03:48:35.145Z,2.55
2019-03-06T03:51:06.941Z,2.49
2019-03-06T03:53:38.767Z,2.49
2019-03-06T03:56:11.420Z,2.64
2019-03-06T03:58:43.258Z,2.69
2019-03-06T04:01:15.154Z,2.70
2019-03-06T04:03:46.923Z,2.78
2019-03-06T04:06:19.216Z,2.65
2019-03-06T04:08:51.114Z,2.57
2019-03-06T04:11:22.996Z,2.50
2019-03-06T04:13:54.821Z,2.52
2019-03-06T04:16:26.630Z,2.46
2019-03-06T04:18:58.467Z,2.49
2019-03-06T04:21:30.296Z,2.40
2019-03-06T04:24:02.094Z,2.47
2019-03-06T04:26:34.090Z,2.30
2019-03-06T04:29:06.116Z,2.29
2019-03-06T04:31:38.589Z,2.21
2019-03-06T04:34:11.843Z,2.23
2019-03-06T04:36:43.579Z,2.31
2019-03-06T04:39:15.623Z,2.29
2019-03-06T04:41:47.370Z,2.19
2019-03-06T04:44:19.279Z,2.16
2019-03-06T04:46:51.101Z,2.13
2019-03-06T04:49:23.359Z,2.09
2019-03-06T04:51:55.098Z,2.08
2019-03-06T04:54:26.848Z,2.07
2019-03-06T04:56:58.944Z,2.26
2019-03-06T04:59:31.240Z,2.27
2019-03-06T05:02:03.139Z,2.19
2019-03-06T05:04:34.934Z,2.14
2019-03-06T05:07:06.904Z,2.07
2019-03-06T05:09:38.846Z,1.99
2019-03-06T05:12:11.374Z,1.98
2019-03-06T05:14:43.465Z,1.97
2019-03-06T05:17:21.250Z,1.92
2019-03-06T05:19:53.475Z,1.94
2019-03-06T05:22:25.535Z,1.88
2019-03-06T05:24:57.485Z,1.84
2019-03-06T05:27:29.477Z,1.80
2019-03-06T05:30:01.580Z,1.80
2019-03-06T05:32:38.986Z,1.97
2019-03-06T05:35:25.878Z,2.04
2019-03-06T05:38:36.203Z,2.13
2019-03-06T05:41:08.173Z,2.12
2019-03-06T05:43:40.307Z,2.05
2019-03-06T05:46:12.305Z,2.04
2019-03-06T05:48:44.251Z,2.12
2019-03-06T05:51:16.516Z,2.17
2019-03-06T05:53:48.492Z,2.27
2019-03-06T05:56:20.626Z,2.41
2019-03-06T05:58:52.455Z,2.47
2019-03-06T06:01:24.354Z,2.31
2019-03-06T06:03:56.307Z,2.48
2019-03-06T06:06:28.154Z,2.49
2019-03-06T06:09:00.386Z,2.54
2019-03-06T06:11:33.969Z,2.46
2019-03-06T06:14:06.043Z,2.49
2019-03-06T06:16:37.877Z,2.56
2019-03-06T06:19:10.192Z,2.49
2019-03-06T06:21:54.395Z,2.58
2019-03-06T06:24:28.511Z,2.56
2019-03-06T06:27:00.541Z,2.57
2019-03-06T06:29:32.296Z,2.69
2019-03-06T06:32:04.227Z,2.55
2019-03-06T06:34:35.963Z,2.68
2019-03-06T06:37:07.785Z,2.78
2019-03-06T06:39:39.563Z,2.79
2019-03-06T06:42:11.679Z,2.88
2019-03-06T06:44:43.441Z,2.89
2019-03-06T06:47:15.619Z,2.93
2019-03-06T06:49:47.764Z,2.93
2019-03-06T06:53:24.619Z,2.91
2019-03-06T06:57:26.775Z,2.67
2019-03-06T07:01:19.105Z,2.85
2019-03-06T07:04:58.462Z,2.96
2019-03-06T07:07:51.980Z,3.03
2019-03-06T07:10:57.653Z,3.10
2019-03-06T07:13:46.749Z,3.07
2019-03-06T07:16:40.435Z,3.14
2019-03-06T07:19:31.421Z,3.26
2019-03-06T07:22:20.849Z,3.22
2019-03-06T07:25:11.602Z,3.31
2019-03-06T07:28:05.343Z,3.34
2019-03-06T07:30:54.711Z,3.45
2019-03-06T07:33:53.396Z,3.63
2019-03-06T07:36:43.055Z,3.66
2019-03-06T07:39:25.622Z,3.73
2019-03-06T07:42:15.151Z,3.83
2019-03-06T07:46:10.090Z,3.90
2019-03-06T07:49:03.617Z,3.99
2019-03-06T07:51:57.276Z,4.13
2019-03-06T07:54:56.821Z,4.18
2019-03-06T07:57:39.152Z,4.30
2019-03-06T08:00:18.911Z,4.42
2019-03-06T08:03:16.555Z,4.45
2019-03-06T08:05:48.430Z,4.51
2019-03-06T08:08:20.169Z,4.61
2019-03-06T08:10:53.439Z,4.68
2019-03-06T08:13:35.871Z,4.74
2019-03-06T08:16:13.207Z,4.86
2019-03-06T08:18:58.183Z,4.96
2019-03-06T08:21:48.494Z,4.98
2019-03-06T08:24:42.006Z,5.14
2019-03-06T08:27:14.071Z,5.25
2019-03-06T08:29:46.056Z,5.31
2019-03-06T08:32:28.309Z,5.36
2019-03-06T08:35:00.248Z,5.47
2019-03-06T08:37:32.517Z,5.59
2019-03-06T08:40:05.276Z,5.67
2019-03-06T08:42:37.159Z,5.76
2019-03-06T08:45:10.407Z,5.87
2019-03-06T08:48:06.111Z,6.03
2019-03-06T08:50:56.172Z,6.13
2019-03-06T08:53:33.054Z,6.23
2019-03-06T08:56:20.774Z,6.35
2019-03-06T08:59:01.226Z,6.40
2019-03-06T09:02:00.023Z,6.45
2019-03-06T09:04:34.037Z,6.51
2019-03-06T09:07:24.083Z,6.53
2019-03-06T09:10:09.531Z,6.63
2019-03-06T09:12:48.635Z,6.74
2019-03-06T09:15:30.221Z,6.80
2019-03-06T09:18:19.561Z,6.88
2019-03-06T09:21:10.242Z,6.95
2019-03-06T09:23:59.152Z,7.03
2019-03-06T09:27:02.031Z,7.13
2019-03-06T09:30:01.694Z,7.25
2019-03-06T09:32:38.590Z,7.33
2019-03-06T09:35:33.037Z,7.35
2019-03-06T09:38:15.447Z,7.41
2019-03-06T09:41:01.822Z,7.54
2019-03-06T09:43:50.100Z,7.62
2019-03-06T09:46:37.226Z,7.67
2019-03-06T09:49:31.050Z,7.78
2019-03-06T09:52:20.123Z,7.84
2019-03-06T09:55:11.375Z,7.92
2019-03-06T09:57:49.919Z,7.93
2019-03-06T10:00:46.569Z,7.91
2019-03-06T10:03:50.155Z,7.91
2019-03-06T10:06:33.558Z,8.05
2019-03-06T10:09:28.677Z,8.11
2019-03-06T10:12:25.090Z,8.24
2019-03-06T10:15:10.446Z,8.34
2019-03-06T10:17:49.691Z,8.39
2019-03-06T10:20:25.354Z,8.47
2019-03-06T10:22:59.581Z,8.54
2019-03-06T10:25:31.062Z,8.62
2019-03-06T10:28:06.519Z,8.73
2019-03-06T10:30:37.225Z,8.81
2019-03-06T10:33:09.175Z,8.96
2019-03-06T10:35:41.218Z,9.12
2019-03-06T10:38:16.627Z,9.21
2019-03-06T10:40:46.623Z,9.30
2019-03-06T10:43:19.338Z,9.45
2019-03-06T10:45:51.164Z,9.53
2019-03-06T10:48:23.054Z,9.61
2019-03-06T10:50:54.950Z,9.72
2019-03-06T10:53:26.838Z,9.79
2019-03-06T10:55:58.734Z,9.92
2019-03-06T10:58:30.624Z,10.16
2019-03-06T11:01:02.613Z,10.12
2019-03-06T11:03:53.548Z,10.30
2019-03-06T11:06:25.466Z,10.43
2019-03-06T11:08:57.363Z,10.37
2019-03-06T11:11:30.833Z,10.53
2019-03-06T11:14:06.234Z,10.48
2019-03-06T11:16:40.174Z,10.57
2019-03-06T11:19:10.719Z,10.64
2019-03-06T11:21:42.709Z,10.66
2019-03-06T11:24:14.618Z,10.56
2019-03-06T11:26:46.514Z,10.62
2019-03-06T11:29:19.409Z,10.64
2019-03-06T11:31:51.456Z,10.65
2019-03-06T11:34:23.417Z,10.68
2019-03-06T11:36:55.488Z,10.65
2019-03-06T11:39:27.747Z,10.65
2019-03-06T11:41:59.643Z,10.55
2019-03-06T11:44:31.379Z,10.53
2019-03-06T11:47:03.283Z,10.58
2019-03-06T11:49:36.145Z,10.51
2019-03-06T11:52:08.069Z,10.51
2019-03-06T11:54:40.139Z,10.52
2019-03-06T11:57:12.037Z,10.44
2019-03-06T11:59:44.177Z,10.47
2019-03-06T12:02:16.987Z,10.45
2019-03-06T12:04:48.999Z,10.40
2019-03-06T12:07:20.768Z,10.37
2019-03-06T12:09:52.649Z,10.32
2019-03-06T12:12:24.473Z,10.29
2019-03-06T12:14:56.289Z,10.32
2019-03-06T12:17:28.118Z,10.36
2019-03-06T12:20:07.877Z,10.35
2019-03-06T12:22:33.854Z,10.39
2019-03-06T12:25:07.374Z,10.39
2019-03-06T12:27:39.388Z,10.45
2019-03-06T12:30:12.270Z,10.48
2019-03-06T12:32:45.586Z,10.45
2019-03-06T12:35:18.026Z,10.47
2019-03-06T12:37:49.926Z,10.49
2019-03-06T12:40:22.872Z,10.50
2019-03-06T12:42:54.918Z,10.54
2019-03-06T12:45:27.395Z,10.62
2019-03-06T12:47:59.786Z,10.63
2019-03-06T12:50:32.309Z,10.64
2019-03-06T12:53:04.283Z,10.70
2019-03-06T12:55:36.236Z,10.83
2019-03-06T12:58:08.373Z,10.95
2019-03-06T13:00:40.444Z,11.11
2019-03-06T13:03:12.260Z,11.19
2019-03-06T13:05:44.000Z,11.38
2019-03-06T13:08:19.667Z,11.41
2019-03-06T13:10:49.344Z,11.55
2019-03-06T13:13:21.344Z,11.62
2019-03-06T13:15:53.214Z,11.68
2019-03-06T13:18:25.118Z,11.77
2019-03-06T13:20:57.005Z,11.87
2019-03-06T13:23:29.351Z,11.94
2019-03-06T13:26:10.036Z,11.94
2019-03-06T13:28:34.914Z,11.92
2019-03-06T13:31:07.241Z,12.03
2019-03-06T13:33:59.610Z,12.15
2019-03-06T13:36:31.424Z,12.29
2019-03-06T13:39:06.559Z,12.49
2019-03-06T13:41:39.869Z,12.61
2019-03-06T13:44:11.871Z,12.70
2019-03-06T13:46:43.720Z,12.83
2019-03-06T13:49:15.508Z,12.90
2019-03-06T13:51:47.324Z,13.20
2019-03-06T13:54:19.240Z,13.29
2019-03-06T13:56:51.918Z,13.39
2019-03-06T13:59:24.236Z,13.63
2019-03-06T14:01:56.112Z,13.74
2019-03-06T14:04:27.939Z,14.11
2019-03-06T14:06:59.693Z,14.12
2019-03-06T14:09:31.948Z,14.34
2019-03-06T14:12:03.843Z,14.67
2019-03-06T14:14:35.680Z,14.74
2019-03-06T14:17:08.064Z,14.78
2019-03-06T14:19:40.228Z,14.58
2019-03-06T14:22:12.118Z,14.71
2019-03-06T14:24:44.091Z,14.71
2019-03-06T14:27:17.225Z,14.76
2019-03-06T14:29:51.046Z,14.91
2019-03-06T14:32:22.552Z,15.06
2019-03-06T14:34:54.452Z,15.00
2019-03-06T14:37:26.434Z,15.33
2019-03-06T14:39:59.418Z,15.13
2019-03-06T14:42:32.269Z,15.10
2019-03-06T14:45:04.674Z,15.08
2019-03-06T14:47:36.962Z,14.83
2019-03-06T14:50:09.856Z,14.80
2019-03-06T14:52:41.781Z,14.69
2019-03-06T14:55:14.327Z,14.79
2019-03-06T14:57:46.479Z,14.67
2019-03-06T15:00:19.008Z,14.66
2019-03-06T15:02:50.794Z,14.64
2019-03-06T15:05:22.697Z,14.60
2019-03-06T15:07:54.623Z,14.43
2019-03-06T15:10:26.627Z,14.26
2019-03-06T15:12:58.514Z,14.07
2019-03-06T15:15:30.334Z,13.91
2019-03-06T15:18:10.290Z,13.74
2019-03-06T15:20:37.720Z,13.61
2019-03-06T15:23:09.318Z,13.50
2019-03-06T15:25:41.137Z,13.37
2019-03-06T15:28:13.129Z,13.25
2019-03-06T15:30:45.032Z,13.11
2019-03-06T15:33:16.784Z,13.01
2019-03-06T15:35:48.679Z,12.86
2019-03-06T15:38:20.576Z,12.80
2019-03-06T15:40:52.388Z,12.72
2019-03-06T15:43:24.734Z,12.63
2019-03-06T15:45:56.496Z,12.58
2019-03-06T15:48:28.348Z,12.57
2019-03-06T15:51:00.433Z,12.49
2019-03-06T15:53:32.532Z,12.40
2019-03-06T15:56:04.436Z,12.36
2019-03-06T15:58:36.329Z,12.26
2019-03-06T16:01:08.273Z,12.18
2019-03-06T16:03:40.166Z,12.15
2019-03-06T16:06:20.167Z,12.05
2019-03-06T16:08:45.667Z,11.91
2019-03-06T16:11:19.693Z,11.95
2019-03-06T16:13:51.248Z,11.88
2019-03-06T16:16:23.153Z,11.90
2019-03-06T16:18:56.009Z,11.84
2019-03-06T16:21:27.828Z,11.70
2019-03-06T16:23:59.694Z,11.72
2019-03-06T16:26:31.595Z,11.57
2019-03-06T16:29:03.740Z,11.54
2019-03-06T16:31:35.634Z,11.55
2019-03-06T16:34:07.530Z,11.52
2019-03-06T16:36:39.596Z,11.38
2019-03-06T16:39:11.716Z,11.33
2019-03-06T16:41:45.091Z,11.27
2019-03-06T16:44:16.979Z,11.31
2019-03-06T16:46:48.810Z,11.20
2019-03-06T16:49:20.821Z,11.14
2019-03-06T16:51:52.737Z,11.12
2019-03-06T16:54:24.909Z,11.11
2019-03-06T16:56:56.821Z,11.09
2019-03-06T16:59:28.689Z,11.06
2019-03-06T17:02:00.582Z,11.06
2019-03-06T17:04:32.753Z,10.94
2019-03-06T17:07:04.958Z,10.81
2019-03-06T17:09:36.853Z,10.65
2019-03-06T17:12:08.954Z,10.59
2019-03-06T17:14:40.793Z,10.63
2019-03-06T17:17:12.686Z,10.56
2019-03-06T17:19:44.680Z,10.52
2019-03-06T17:22:16.874Z,10.41
2019-03-06T17:24:48.714Z,10.40
2019-03-06T17:27:20.464Z,10.33
2019-03-06T17:29:52.357Z,10.16
2019-03-06T17:32:24.217Z,10.13
2019-03-06T17:34:56.454Z,9.97
2019-03-06T17:37:28.515Z,9.77
2019-03-06T17:40:00.600Z,9.65
2019-03-06T17:42:32.919Z,9.57
2019-03-06T17:45:05.170Z,9.49
2019-03-06T17:47:36.993Z,9.40
2019-03-06T17:50:09.115Z,9.28
2019-03-06T17:52:41.173Z,9.19
2019-03-06T17:55:14.437Z,9.21
2019-03-06T17:57:46.264Z,9.15
2019-03-06T18:00:21.914Z,8.99
2019-03-06T18:02:53.728Z,8.96
2019-03-06T18:05:26.083Z,8.92
2019-03-06T18:07:57.952Z,8.82
2019-03-06T18:10:29.840Z,8.74
2019-03-06T18:13:01.889Z,8.67
2019-03-06T18:15:34.254Z,8.67
2019-03-06T18:18:06.426Z,8.56
2019-03-06T18:20:38.568Z,8.53
2019-03-06T18:23:11.352Z,8.56
2019-03-06T18:25:44.604Z,8.38
2019-03-06T18:28:17.468Z,8.43
2019-03-06T18:30:49.216Z,8.40
2019-03-06T18:33:21.039Z,8.17
2019-03-06T18:35:52.925Z,8.16
2019-03-06T18:38:24.729Z,8.06
2019-03-06T18:40:56.568Z,8.10
2019-03-06T18:43:28.512Z,8.36
2019-03-06T18:46:00.266Z,8.35
2019-03-06T18:48:32.056Z,8.34
2019-03-06T18:51:03.964Z,8.36
2019-03-06T18:53:35.686Z,8.45
2019-03-06T18:56:07.499Z,8.64
2019-03-06T18:58:39.238Z,8.43
2019-03-06T19:01:12.084Z,8.28
2019-03-06T19:03:44.289Z,8.22
2019-03-06T19:06:16.435Z,8.49
2019-03-06T19:08:48.237Z,8.65
2019-03-06T19:11:19.977Z,8.54
2019-03-06T19:13:51.864Z,8.74
2019-03-06T19:16:23.973Z,8.80
2019-03-06T19:18:55.818Z,8.79
2019-03-06T19:21:27.685Z,8.87
2019-03-06T19:23:59.700Z,8.68
2019-03-06T19:26:31.791Z,8.63
2019-03-06T19:29:05.494Z,8.65
2019-03-06T19:31:37.577Z,8.65
2019-03-06T19:34:09.858Z,8.60
2019-03-06T19:36:43.070Z,8.65
2019-03-06T19:39:15.010Z,8.75
2019-03-06T19:41:47.100Z,8.66
2019-03-06T19:44:19.732Z,8.88
2019-03-06T19:46:51.594Z,8.84
2019-03-06T19:49:23.463Z,8.88
2019-03-06T19:51:55.302Z,8.99
2019-03-06T19:54:27.174Z,9.09
2019-03-06T19:56:59.257Z,9.05
2019-03-06T19:59:31.208Z,9.13
2019-03-06T20:02:03.362Z,9.03
2019-03-06T20:04:35.637Z,9.07
2019-03-06T20:07:07.590Z,9.03
2019-03-06T20:09:39.686Z,8.98
2019-03-06T20:12:11.688Z,8.73
2019-03-06T20:14:43.839Z,8.69
2019-03-06T20:17:15.996Z,8.67
2019-03-06T20:19:49.274Z,8.70
2019-03-06T20:22:22.799Z,8.79
2019-03-06T20:24:54.782Z,8.73
2019-03-06T20:27:26.963Z,8.78
2019-03-06T20:29:59.271Z,8.70
2019-03-06T20:32:31.637Z,8.83
2019-03-06T20:35:03.638Z,8.82
2019-03-06T20:37:35.520Z,8.83
2019-03-06T20:40:08.217Z,8.86
2019-03-06T20:42:40.659Z,8.96
2019-03-06T20:45:12.912Z,8.89
2019-03-06T20:47:45.246Z,8.78
2019-03-06T20:50:17.284Z,8.85
2019-03-06T20:52:50.357Z,8.82
2019-03-06T20:55:22.455Z,8.83
2019-03-06T20:57:54.384Z,8.95
2019-03-06T21:00:26.463Z,8.95
2019-03-06T21:02:58.405Z,8.95
2019-03-06T21:05:30.479Z,8.97
2019-03-06T21:08:02.422Z,9.01
2019-03-06T21:10:34.190Z,8.98
2019-03-06T21:13:06.440Z,8.97
2019-03-06T21:15:38.316Z,8.92
2019-03-06T21:18:11.329Z,9.02
2019-03-06T21:20:43.256Z,8.99
2019-03-06T21:23:15.095Z,9.07
2019-03-06T21:25:47.508Z,9.13
2019-03-06T21:28:19.464Z,9.08
2019-03-06T21:30:51.583Z,9.17
2019-03-06T21:33:23.377Z,9.15
2019-03-06T21:35:55.430Z,9.18
2019-03-06T21:38:27.200Z,9.20
2019-03-06T21:41:00.140Z,9.21
2019-03-06T21:43:32.010Z,9.17
2019-03-06T21:46:03.948Z,9.09
2019-03-06T21:48:36.082Z,9.10
2019-03-06T21:51:07.936Z,9.22
2019-03-06T21:53:39.913Z,9.27
2019-03-06T21:56:11.820Z,9.36
2019-03-06T21:58:43.775Z,9.27
2019-03-06T22:01:16.066Z,9.19
2019-03-06T22:03:48.220Z,9.12
2019-03-06T22:06:20.116Z,9.17
2019-03-06T22:08:51.979Z,9.08
2019-03-06T22:11:23.881Z,9.16
2019-03-06T22:13:56.153Z,9.16
2019-03-06T22:16:28.095Z,9.23
2019-03-06T22:19:01.009Z,9.21
2019-03-06T22:21:32.966Z,9.35
2019-03-06T22:24:04.957Z,9.20
2019-03-06T22:26:36.778Z,9.12
2019-03-06T22:29:08.738Z,9.04
2019-03-06T22:31:41.442Z,9.03
2019-03-06T22:34:13.267Z,9.06
2019-03-06T22:36:45.078Z,9.11
2019-03-06T22:39:17.154Z,9.19
2019-03-06T22:41:49.155Z,8.98
2019-03-06T22:44:20.977Z,8.86
2019-03-06T22:46:52.866Z,8.79
2019-03-06T22:49:24.955Z,8.77
2019-03-06T22:51:56.788Z,8.60
2019-03-06T22:54:28.682Z,8.58
2019-03-06T22:57:00.425Z,8.60
2019-03-06T22:59:32.168Z,8.81
2019-03-06T23:02:04.243Z,9.04
2019-03-06T23:04:35.990Z,9.08
2019-03-06T23:07:08.174Z,9.01
2019-03-06T23:09:40.083Z,9.00
2019-03-06T23:12:11.896Z,9.11
2019-03-06T23:14:43.641Z,9.07
2019-03-06T23:17:15.783Z,9.03
2019-03-06T23:19:47.682Z,8.96
2019-03-06T23:22:19.508Z,8.91
2019-03-06T23:24:51.511Z,8.83
2019-03-06T23:27:23.499Z,8.84
2019-03-06T23:29:55.324Z,8.81
2019-03-06T23:32:27.069Z,8.74
2019-03-06T23:34:58.920Z,8.62
2019-03-06T23:37:30.902Z,8.49
2019-03-06T23:40:02.652Z,8.65
2019-03-06T23:42:34.492Z,8.55
2019-03-06T23:45:06.592Z,8.52
2019-03-06T23:47:38.462Z,8.45
2019-03-06T23:50:11.597Z,8.35
2019-03-06T23:53:14.403Z,8.27
2019-03-06T23:55:46.291Z,8.15
2019-03-06T23:58:18.054Z,8.04
